EZY42Y EHAM-LEIB
Flight info
| Callsign | EZY42Y |
|---|---|
| Flight time | 2h 22m |
| Altitude | 37000 |
| Route | LOPIK N852 LNO DCT SUTAL DCT GTQ DCT POGOL DCT LASAT DCT MOROK DCT GILIR DCT GEVEA DCT INCUS DCT BALSI DCT RETNO DCT TUPOX DCT MTG DCT DIVKO DCT VATIR N852 PIVUS Z237 SULID DCT DIMIB DCT POS |
| Aircraft | A320/M-SDE3FGHIRWY/LB1 |
Departure
| Time | 2026-05-04 08:02 |
|---|---|
| Airport | Amsterdam Airport Schiphol (EHAM) |
Arrival
| Time | 2026-05-04 10:25 |
|---|---|
| Airport | Ibiza Airport (LEIB) |
| Time | Latitude | Longitude | Altitude | Speed | Heading |
|---|---|---|---|---|---|
| 2026-05-04 07:35 | 52.31050 | 4.75514 | 0 ft | 0 kts | 148° |
| 2026-05-04 07:49 | 52.31083 | 4.75480 | -1 ft | 4 kts | 94° |
| 2026-05-04 07:49 | 52.31079 | 4.75448 | -1 ft | 3 kts | 72° |
| 2026-05-04 07:49 | 52.31078 | 4.75443 | -1 ft | 0 kts | 72° |
| 2026-05-04 07:52 | 52.31078 | 4.75444 | -1 ft | 1 kts | 72° |
| 2026-05-04 07:52 | 52.31085 | 4.75463 | -1 ft | 3 kts | 48° |
| 2026-05-04 07:52 | 52.31114 | 4.75501 | -1 ft | 5 kts | 25° |
| 2026-05-04 07:53 | 52.31146 | 4.75508 | -1 ft | 5 kts | 357° |
| 2026-05-04 07:54 | 52.31439 | 4.75758 | -1 ft | 10 kts | 88° |
| 2026-05-04 07:55 | 52.31442 | 4.75896 | -1 ft | 14 kts | 87° |
| 2026-05-04 07:55 | 52.31448 | 4.76061 | -1 ft | 15 kts | 87° |
| 2026-05-04 07:55 | 52.31453 | 4.76231 | -1 ft | 15 kts | 86° |
| 2026-05-04 07:55 | 52.31460 | 4.76410 | -1 ft | 16 kts | 86° |
| 2026-05-04 07:56 | 52.31468 | 4.76603 | -1 ft | 18 kts | 86° |
| 2026-05-04 07:56 | 52.31477 | 4.76817 | -1 ft | 20 kts | 86° |
| 2026-05-04 07:56 | 52.31484 | 4.77052 | -1 ft | 22 kts | 88° |
| 2026-05-04 07:56 | 52.31421 | 4.77269 | -1 ft | 23 kts | 131° |
| 2026-05-04 07:57 | 52.31313 | 4.77463 | -1 ft | 24 kts | 142° |
| 2026-05-04 07:57 | 52.31150 | 4.77496 | -1 ft | 24 kts | 184° |
| 2026-05-04 07:57 | 52.30977 | 4.77479 | -1 ft | 26 kts | 183° |
| 2026-05-04 07:57 | 52.30806 | 4.77477 | -1 ft | 25 kts | 186° |
| 2026-05-04 07:58 | 52.30683 | 4.77454 | -1 ft | 9 kts | 178° |
| 2026-05-04 07:58 | 52.30633 | 4.77486 | -1 ft | 7 kts | 153° |
| 2026-05-04 07:58 | 52.30584 | 4.77527 | -1 ft | 9 kts | 153° |
| 2026-05-04 07:58 | 52.30535 | 4.77567 | -1 ft | 2 kts | 152° |
| 2026-05-04 07:59 | 52.30534 | 4.77569 | -1 ft | 0 kts | 152° |
| 2026-05-04 07:59 | 52.30519 | 4.77582 | -1 ft | 6 kts | 152° |
| 2026-05-04 07:59 | 52.30472 | 4.77623 | -1 ft | 8 kts | 149° |
| 2026-05-04 07:59 | 52.30435 | 4.77661 | 0 ft | 5 kts | 163° |
| 2026-05-04 08:00 | 52.30411 | 4.77634 | -1 ft | 4 kts | 242° |
| 2026-05-04 08:00 | 52.30409 | 4.77628 | -1 ft | 0 kts | 243° |
| 2026-05-04 08:02 | 52.29212 | 4.74515 | 149 ft | 171 kts | 237° |
| 2026-05-04 08:02 | 52.28582 | 4.72879 | 891 ft | 169 kts | 237° |
| 2026-05-04 08:02 | 52.27957 | 4.71278 | 1577 ft | 174 kts | 236° |
| 2026-05-04 08:03 | 52.27205 | 4.69600 | 1963 ft | 192 kts | 220° |
| 2026-05-04 08:03 | 52.25917 | 4.68659 | 2257 ft | 217 kts | 186° |
| 2026-05-04 08:03 | 52.24392 | 4.68948 | 2897 ft | 228 kts | 159° |
| 2026-05-04 08:03 | 52.23085 | 4.70416 | 3702 ft | 233 kts | 128° |
| 2026-05-04 08:04 | 52.22202 | 4.72690 | 4320 ft | 250 kts | 120° |
| 2026-05-04 08:04 | 52.21300 | 4.75275 | 4816 ft | 271 kts | 118° |
| 2026-05-04 08:04 | 52.20379 | 4.77963 | 5767 ft | 273 kts | 118° |
| 2026-05-04 08:04 | 52.19450 | 4.80637 | 6675 ft | 273 kts | 118° |
| 2026-05-04 08:05 | 52.18471 | 4.83421 | 7235 ft | 290 kts | 120° |
| 2026-05-04 08:05 | 52.17466 | 4.86264 | 8183 ft | 290 kts | 120° |
| 2026-05-04 08:05 | 52.16453 | 4.89132 | 9052 ft | 294 kts | 123° |
| 2026-05-04 08:05 | 52.15170 | 4.91737 | 9881 ft | 296 kts | 139° |
| 2026-05-04 08:06 | 52.13508 | 4.93763 | 10494 ft | 307 kts | 152° |
| 2026-05-04 08:06 | 52.11591 | 4.95575 | 10770 ft | 330 kts | 153° |
| 2026-05-04 08:06 | 52.09583 | 4.97446 | 11307 ft | 342 kts | 153° |
| 2026-05-04 08:06 | 52.07506 | 4.99378 | 12040 ft | 346 kts | 153° |
| 2026-05-04 08:08 | 51.92356 | 5.13171 | 16984 ft | 362 kts | 165° |
| 2026-05-04 08:08 | 51.89940 | 5.14311 | 17605 ft | 363 kts | 169° |
| 2026-05-04 08:10 | 51.69933 | 5.23159 | 22136 ft | 382 kts | 170° |
| 2026-05-04 08:11 | 51.67364 | 5.24289 | 22631 ft | 384 kts | 170° |
| 2026-05-04 08:11 | 51.62182 | 5.26562 | 23569 ft | 388 kts | 170° |
| 2026-05-04 08:11 | 51.59567 | 5.27706 | 24033 ft | 391 kts | 171° |
| 2026-05-04 08:12 | 51.56939 | 5.28859 | 24499 ft | 393 kts | 171° |
| 2026-05-04 08:12 | 51.54294 | 5.30020 | 24919 ft | 395 kts | 171° |
| 2026-05-04 08:12 | 51.51628 | 5.31187 | 25328 ft | 397 kts | 171° |
| 2026-05-04 08:12 | 51.48952 | 5.32357 | 25720 ft | 400 kts | 171° |
| 2026-05-04 08:13 | 51.46292 | 5.33516 | 26113 ft | 402 kts | 171° |
| 2026-05-04 08:13 | 51.43580 | 5.34694 | 26477 ft | 405 kts | 171° |
| 2026-05-04 08:13 | 51.40852 | 5.35882 | 26845 ft | 407 kts | 171° |
| 2026-05-04 08:13 | 51.38109 | 5.37075 | 27207 ft | 410 kts | 171° |
| 2026-05-04 08:14 | 51.35352 | 5.38274 | 27571 ft | 411 kts | 171° |
| 2026-05-04 08:14 | 51.32570 | 5.39486 | 27929 ft | 414 kts | 171° |
| 2026-05-04 08:14 | 51.29784 | 5.40702 | 28280 ft | 416 kts | 171° |
| 2026-05-04 08:16 | 51.09837 | 5.48383 | 30372 ft | 431 kts | 170° |
| 2026-05-04 08:16 | 51.06945 | 5.49705 | 30640 ft | 433 kts | 169° |
| 2026-05-04 08:16 | 51.04047 | 5.51040 | 30911 ft | 434 kts | 169° |
| 2026-05-04 08:17 | 51.01138 | 5.52361 | 31196 ft | 435 kts | 170° |
| 2026-05-04 08:17 | 50.98227 | 5.53653 | 31562 ft | 434 kts | 170° |
| 2026-05-04 08:17 | 50.95321 | 5.54917 | 31926 ft | 433 kts | 170° |
| 2026-05-04 08:17 | 50.92415 | 5.56168 | 32296 ft | 431 kts | 170° |
| 2026-05-04 08:19 | 50.72264 | 5.64838 | 34621 ft | 426 kts | 169° |
| 2026-05-04 08:19 | 50.69405 | 5.66065 | 34926 ft | 425 kts | 170° |
| 2026-05-04 08:20 | 50.66551 | 5.67298 | 35220 ft | 425 kts | 169° |
| 2026-05-04 08:20 | 50.63741 | 5.68560 | 35482 ft | 425 kts | 168° |
| 2026-05-04 08:20 | 50.60905 | 5.69875 | 35744 ft | 425 kts | 168° |
| 2026-05-04 08:20 | 50.58072 | 5.71291 | 36011 ft | 428 kts | 163° |
| 2026-05-04 08:21 | 50.55306 | 5.73051 | 36243 ft | 428 kts | 163° |
| 2026-05-04 08:21 | 50.52542 | 5.74801 | 36466 ft | 428 kts | 163° |
| 2026-05-04 08:21 | 50.49778 | 5.76535 | 36704 ft | 428 kts | 163° |
| 2026-05-04 08:21 | 50.47019 | 5.78253 | 36952 ft | 425 kts | 163° |
| 2026-05-04 08:22 | 50.41558 | 5.81636 | 37008 ft | 419 kts | 163° |
| 2026-05-04 08:24 | 50.19886 | 5.94975 | 37009 ft | 419 kts | 163° |
| 2026-05-04 08:24 | 50.14481 | 5.98283 | 37009 ft | 419 kts | 163° |
| 2026-05-04 08:25 | 50.09034 | 6.01610 | 37014 ft | 419 kts | 163° |
| 2026-05-04 08:25 | 50.03634 | 6.04901 | 37018 ft | 419 kts | 163° |
| 2026-05-04 08:27 | 49.81917 | 6.18077 | 37026 ft | 418 kts | 163° |
| 2026-05-04 08:28 | 49.76495 | 6.21341 | 37024 ft | 418 kts | 163° |
| 2026-05-04 08:28 | 49.71068 | 6.24605 | 37023 ft | 418 kts | 163° |
| 2026-05-04 08:29 | 49.65643 | 6.27851 | 37023 ft | 418 kts | 164° |
| 2026-05-04 08:31 | 49.44820 | 6.40301 | 37022 ft | 420 kts | 162° |
| 2026-05-04 08:33 | 49.23428 | 6.54973 | 37030 ft | 422 kts | 161° |
| 2026-05-04 08:35 | 49.01919 | 6.69417 | 37035 ft | 421 kts | 163° |
| 2026-05-04 08:35 | 48.96305 | 6.71416 | 37030 ft | 411 kts | 180° |
| 2026-05-04 08:37 | 48.76398 | 6.70748 | 37028 ft | 409 kts | 185° |
| 2026-05-04 08:38 | 48.70705 | 6.70538 | 37030 ft | 410 kts | 185° |
| 2026-05-04 08:38 | 48.65037 | 6.70315 | 37033 ft | 410 kts | 185° |
| 2026-05-04 08:40 | 48.42243 | 6.69431 | 37029 ft | 409 kts | 185° |
| 2026-05-04 08:41 | 48.36543 | 6.69210 | 37033 ft | 410 kts | 185° |
| 2026-05-04 08:41 | 48.30841 | 6.68989 | 37032 ft | 410 kts | 185° |
| 2026-05-04 08:42 | 48.25138 | 6.68769 | 37037 ft | 410 kts | 185° |
| 2026-05-04 08:42 | 48.19437 | 6.68553 | 37044 ft | 410 kts | 185° |
| 2026-05-04 08:43 | 48.13738 | 6.68333 | 37042 ft | 409 kts | 185° |
| 2026-05-04 08:43 | 48.08046 | 6.68111 | 37040 ft | 409 kts | 185° |
| 2026-05-04 08:44 | 48.02389 | 6.67899 | 37041 ft | 409 kts | 185° |
| 2026-05-04 08:46 | 47.79607 | 6.67037 | 37041 ft | 410 kts | 185° |
| 2026-05-04 08:46 | 47.73889 | 6.66829 | 37040 ft | 410 kts | 185° |
| 2026-05-04 08:47 | 47.68175 | 6.66616 | 37046 ft | 411 kts | 185° |
| 2026-05-04 08:47 | 47.62497 | 6.66407 | 37047 ft | 411 kts | 185° |
| 2026-05-04 08:48 | 47.56779 | 6.66193 | 37050 ft | 411 kts | 185° |
| 2026-05-04 08:48 | 47.51061 | 6.65973 | 37050 ft | 411 kts | 185° |
| 2026-05-04 08:49 | 47.45342 | 6.65756 | 37050 ft | 410 kts | 185° |
| 2026-05-04 08:50 | 47.30831 | 6.54454 | 37047 ft | 401 kts | 221° |
| 2026-05-04 08:50 | 47.28703 | 6.51785 | 37042 ft | 401 kts | 221° |
| 2026-05-04 08:51 | 47.24446 | 6.46459 | 37048 ft | 401 kts | 221° |
| 2026-05-04 08:51 | 47.20213 | 6.41169 | 37043 ft | 402 kts | 221° |
| 2026-05-04 08:52 | 47.15950 | 6.35855 | 37042 ft | 402 kts | 221° |
| 2026-05-04 08:52 | 47.11672 | 6.30548 | 37042 ft | 402 kts | 220° |
| 2026-05-04 08:54 | 46.90431 | 6.21798 | 37040 ft | 410 kts | 188° |
| 2026-05-04 08:55 | 46.84742 | 6.21035 | 37040 ft | 411 kts | 188° |
| 2026-05-04 08:55 | 46.79049 | 6.20280 | 37040 ft | 411 kts | 188° |
| 2026-05-04 09:01 | 46.19110 | 6.12017 | 37065 ft | 411 kts | 192° |
| 2026-05-04 09:01 | 46.13484 | 6.10651 | 37077 ft | 409 kts | 192° |
| 2026-05-04 09:02 | 46.07869 | 6.09315 | 37076 ft | 408 kts | 192° |
| 2026-05-04 09:02 | 46.02254 | 6.08067 | 37077 ft | 408 kts | 191° |
| 2026-05-04 09:03 | 45.96652 | 6.06837 | 37074 ft | 407 kts | 191° |
| 2026-05-04 09:03 | 45.91049 | 6.05609 | 37073 ft | 407 kts | 191° |
| 2026-05-04 09:04 | 45.85465 | 6.04380 | 37071 ft | 407 kts | 191° |
| 2026-05-04 09:04 | 45.79857 | 6.03145 | 37070 ft | 407 kts | 191° |
| 2026-05-04 09:05 | 45.74303 | 6.01927 | 37066 ft | 406 kts | 191° |
| 2026-05-04 09:05 | 45.68717 | 6.00694 | 37056 ft | 406 kts | 191° |
| 2026-05-04 09:06 | 45.63133 | 5.99451 | 37053 ft | 406 kts | 191° |
| 2026-05-04 09:08 | 45.40878 | 5.94102 | 37058 ft | 404 kts | 195° |
| 2026-05-04 09:08 | 45.35404 | 5.92271 | 37054 ft | 404 kts | 195° |
| 2026-05-04 09:09 | 45.29918 | 5.90495 | 37052 ft | 405 kts | 195° |
| 2026-05-04 09:09 | 45.24413 | 5.88784 | 37054 ft | 405 kts | 195° |
| 2026-05-04 09:10 | 45.18900 | 5.87089 | 37054 ft | 405 kts | 195° |
| 2026-05-04 09:10 | 45.13388 | 5.85386 | 37057 ft | 405 kts | 195° |
| 2026-05-04 09:11 | 45.07880 | 5.83678 | 37061 ft | 405 kts | 195° |
| 2026-05-04 09:11 | 45.02364 | 5.81968 | 37059 ft | 405 kts | 195° |
| 2026-05-04 09:12 | 44.96877 | 5.80276 | 37060 ft | 406 kts | 195° |
| 2026-05-04 09:14 | 44.74799 | 5.73516 | 37062 ft | 407 kts | 195° |
| 2026-05-04 09:14 | 44.69264 | 5.71823 | 37063 ft | 407 kts | 196° |
| 2026-05-04 09:15 | 44.63725 | 5.70140 | 37061 ft | 408 kts | 196° |
| 2026-05-04 09:15 | 44.58176 | 5.68456 | 37058 ft | 408 kts | 196° |
| 2026-05-04 09:17 | 44.33474 | 5.59881 | 37056 ft | 404 kts | 205° |
| 2026-05-04 09:18 | 44.28250 | 5.57002 | 37055 ft | 404 kts | 205° |
| 2026-05-04 09:18 | 44.23010 | 5.54141 | 37052 ft | 404 kts | 204° |
| 2026-05-04 09:19 | 44.18647 | 5.51764 | 37046 ft | 405 kts | 205° |
| 2026-05-04 09:19 | 44.13397 | 5.48898 | 37046 ft | 405 kts | 205° |
| 2026-05-04 09:20 | 44.08145 | 5.46037 | 37047 ft | 405 kts | 205° |
| 2026-05-04 09:20 | 44.02894 | 5.43178 | 37044 ft | 405 kts | 205° |
| 2026-05-04 09:21 | 43.97636 | 5.40340 | 37045 ft | 405 kts | 205° |
| 2026-05-04 09:21 | 43.92384 | 5.37501 | 37052 ft | 404 kts | 205° |
| 2026-05-04 09:22 | 43.87138 | 5.34657 | 37051 ft | 404 kts | 205° |
| 2026-05-04 09:22 | 43.81904 | 5.31834 | 37051 ft | 403 kts | 205° |
| 2026-05-04 09:23 | 43.76710 | 5.29041 | 37045 ft | 403 kts | 205° |
| 2026-05-04 09:23 | 43.71495 | 5.26234 | 37046 ft | 402 kts | 205° |
| 2026-05-04 09:25 | 43.50717 | 5.15109 | 37033 ft | 400 kts | 205° |
| 2026-05-04 09:26 | 43.45529 | 5.12351 | 37031 ft | 399 kts | 205° |
| 2026-05-04 09:26 | 43.40335 | 5.09596 | 37034 ft | 399 kts | 206° |
| 2026-05-04 09:27 | 43.35624 | 5.05849 | 37030 ft | 392 kts | 218° |
| 2026-05-04 09:27 | 43.31116 | 5.01577 | 37032 ft | 392 kts | 218° |
| 2026-05-04 09:28 | 43.26633 | 4.97371 | 37041 ft | 392 kts | 218° |
| 2026-05-04 09:28 | 43.22127 | 4.93147 | 37045 ft | 392 kts | 218° |
| 2026-05-04 09:29 | 43.17626 | 4.88931 | 37043 ft | 391 kts | 218° |
| 2026-05-04 09:29 | 43.13123 | 4.84711 | 37043 ft | 391 kts | 218° |
| 2026-05-04 09:30 | 43.08631 | 4.80506 | 37044 ft | 390 kts | 218° |
| 2026-05-04 09:30 | 43.04079 | 4.76513 | 37037 ft | 392 kts | 213° |
| 2026-05-04 09:31 | 42.99302 | 4.72905 | 37038 ft | 392 kts | 213° |
| 2026-05-04 09:31 | 42.94536 | 4.69301 | 37033 ft | 391 kts | 213° |
| 2026-05-04 09:32 | 42.89783 | 4.65693 | 37034 ft | 390 kts | 213° |
| 2026-05-04 09:34 | 42.70866 | 4.51455 | 37031 ft | 387 kts | 213° |
| 2026-05-04 09:34 | 42.66156 | 4.47923 | 37032 ft | 386 kts | 214° |
| 2026-05-04 09:35 | 42.61453 | 4.44396 | 37033 ft | 386 kts | 214° |
| 2026-05-04 09:35 | 42.56759 | 4.40881 | 37035 ft | 385 kts | 214° |
| 2026-05-04 09:37 | 42.38036 | 4.26948 | 37023 ft | 382 kts | 214° |
| 2026-05-04 09:38 | 42.33412 | 4.23516 | 37023 ft | 381 kts | 214° |
| 2026-05-04 09:38 | 42.28765 | 4.20075 | 37021 ft | 380 kts | 214° |
| 2026-05-04 09:39 | 42.24122 | 4.16650 | 37018 ft | 380 kts | 214° |
| 2026-05-04 09:39 | 42.19491 | 4.13237 | 37016 ft | 379 kts | 214° |
| 2026-05-04 09:40 | 42.14864 | 4.09821 | 37008 ft | 379 kts | 214° |
| 2026-05-04 09:40 | 42.10241 | 4.06420 | 37003 ft | 378 kts | 214° |
| 2026-05-04 09:42 | 41.91765 | 3.92924 | 36984 ft | 378 kts | 213° |
| 2026-05-04 09:43 | 41.87073 | 3.89699 | 36984 ft | 379 kts | 212° |
| 2026-05-04 09:43 | 41.82381 | 3.86602 | 36980 ft | 379 kts | 212° |
| 2026-05-04 09:44 | 41.77658 | 3.83467 | 36977 ft | 378 kts | 212° |
| 2026-05-04 09:46 | 41.58808 | 3.70833 | 36972 ft | 379 kts | 212° |
| 2026-05-04 09:46 | 41.54083 | 3.67696 | 36969 ft | 379 kts | 212° |
| 2026-05-04 09:47 | 41.49351 | 3.64559 | 36972 ft | 380 kts | 212° |
| 2026-05-04 09:49 | 41.30461 | 3.52043 | 36967 ft | 380 kts | 212° |
| 2026-05-04 09:51 | 41.13317 | 3.42780 | 36971 ft | 392 kts | 198° |
| 2026-05-04 09:51 | 41.07972 | 3.41370 | 36970 ft | 392 kts | 199° |
| 2026-05-04 09:52 | 41.02621 | 3.39955 | 36971 ft | 392 kts | 199° |
| 2026-05-04 09:52 | 40.97255 | 3.38540 | 36973 ft | 393 kts | 199° |
| 2026-05-04 09:53 | 40.91886 | 3.37119 | 36979 ft | 393 kts | 199° |
| 2026-05-04 09:53 | 40.86511 | 3.35704 | 36982 ft | 395 kts | 199° |
| 2026-05-04 09:54 | 40.81121 | 3.34296 | 36985 ft | 395 kts | 199° |
| 2026-05-04 09:54 | 40.75728 | 3.32896 | 36988 ft | 395 kts | 199° |
| 2026-05-04 09:55 | 40.70336 | 3.31494 | 36994 ft | 395 kts | 199° |
| 2026-05-04 09:55 | 40.64982 | 3.30097 | 36995 ft | 394 kts | 199° |
| 2026-05-04 09:56 | 40.59596 | 3.28688 | 36994 ft | 395 kts | 199° |
| 2026-05-04 09:56 | 40.54200 | 3.27284 | 36995 ft | 396 kts | 199° |
| 2026-05-04 09:57 | 40.48798 | 3.25892 | 37000 ft | 396 kts | 199° |
| 2026-05-04 09:57 | 40.43390 | 3.24496 | 37007 ft | 395 kts | 199° |
| 2026-05-04 09:58 | 40.37996 | 3.23100 | 37001 ft | 395 kts | 199° |
| 2026-05-04 09:58 | 40.32597 | 3.21703 | 36999 ft | 396 kts | 199° |
| 2026-05-04 10:00 | 40.10939 | 3.16111 | 37003 ft | 397 kts | 199° |
| 2026-05-04 10:02 | 39.92131 | 3.10884 | 36647 ft | 387 kts | 210° |
| 2026-05-04 10:04 | 39.75534 | 2.98926 | 32451 ft | 394 kts | 213° |
| 2026-05-04 10:04 | 39.73177 | 2.97228 | 31828 ft | 390 kts | 213° |
| 2026-05-04 10:04 | 39.70820 | 2.95528 | 31205 ft | 386 kts | 213° |
| 2026-05-04 10:04 | 39.68479 | 2.93835 | 30584 ft | 381 kts | 213° |
| 2026-05-04 10:05 | 39.66170 | 2.92166 | 29980 ft | 377 kts | 213° |
| 2026-05-04 10:05 | 39.63889 | 2.90519 | 29385 ft | 373 kts | 213° |
| 2026-05-04 10:05 | 39.61628 | 2.88889 | 28802 ft | 369 kts | 213° |
| 2026-05-04 10:05 | 39.59427 | 2.87300 | 28234 ft | 366 kts | 213° |
| 2026-05-04 10:06 | 39.57208 | 2.85694 | 27671 ft | 362 kts | 213° |
| 2026-05-04 10:06 | 39.55013 | 2.84107 | 27102 ft | 358 kts | 213° |
| 2026-05-04 10:06 | 39.52845 | 2.82544 | 26572 ft | 355 kts | 213° |
| 2026-05-04 10:08 | 39.41825 | 2.71568 | 23615 ft | 322 kts | 243° |
| 2026-05-04 10:08 | 39.40820 | 2.69020 | 23157 ft | 319 kts | 243° |
| 2026-05-04 10:08 | 39.39812 | 2.66482 | 22703 ft | 316 kts | 243° |
| 2026-05-04 10:08 | 39.38807 | 2.63959 | 22245 ft | 313 kts | 243° |
| 2026-05-04 10:09 | 39.37809 | 2.61462 | 21791 ft | 311 kts | 243° |
| 2026-05-04 10:09 | 39.36817 | 2.58983 | 21344 ft | 309 kts | 243° |
| 2026-05-04 10:09 | 39.35846 | 2.56556 | 20883 ft | 307 kts | 243° |
| 2026-05-04 10:09 | 39.34865 | 2.54103 | 20417 ft | 306 kts | 243° |
| 2026-05-04 10:10 | 39.33892 | 2.51662 | 19953 ft | 305 kts | 243° |
| 2026-05-04 10:10 | 39.32921 | 2.49228 | 19485 ft | 304 kts | 243° |
| 2026-05-04 10:10 | 39.31955 | 2.46807 | 19017 ft | 303 kts | 243° |
| 2026-05-04 10:10 | 39.30986 | 2.44385 | 18551 ft | 303 kts | 243° |
| 2026-05-04 10:11 | 39.30018 | 2.41973 | 18093 ft | 303 kts | 243° |
| 2026-05-04 10:11 | 39.29054 | 2.39565 | 17631 ft | 302 kts | 244° |
| 2026-05-04 10:11 | 39.28092 | 2.37160 | 17175 ft | 301 kts | 243° |
| 2026-05-04 10:11 | 39.27128 | 2.34759 | 16723 ft | 301 kts | 243° |
| 2026-05-04 10:12 | 39.26488 | 2.33170 | 16419 ft | 301 kts | 243° |
| 2026-05-04 10:12 | 39.25523 | 2.30777 | 15977 ft | 300 kts | 243° |
| 2026-05-04 10:12 | 39.24561 | 2.28387 | 15529 ft | 300 kts | 243° |
| 2026-05-04 10:12 | 39.23599 | 2.25999 | 14998 ft | 298 kts | 243° |
| 2026-05-04 10:13 | 39.22649 | 2.23642 | 14562 ft | 296 kts | 242° |
| 2026-05-04 10:13 | 39.21392 | 2.20529 | 14044 ft | 295 kts | 242° |
| 2026-05-04 10:13 | 39.20753 | 2.18947 | 13763 ft | 294 kts | 242° |
| 2026-05-04 10:13 | 39.19807 | 2.16603 | 13353 ft | 294 kts | 242° |
| 2026-05-04 10:14 | 39.18865 | 2.14273 | 12949 ft | 293 kts | 242° |
| 2026-05-04 10:14 | 39.17924 | 2.11949 | 12542 ft | 292 kts | 242° |
| 2026-05-04 10:16 | 39.11486 | 1.96088 | 10017 ft | 272 kts | 241° |
| 2026-05-04 10:16 | 39.10615 | 1.93939 | 9850 ft | 270 kts | 241° |
| 2026-05-04 10:16 | 39.09747 | 1.91799 | 9718 ft | 270 kts | 242° |
| 2026-05-04 10:16 | 39.08861 | 1.89623 | 9155 ft | 277 kts | 242° |
| 2026-05-04 10:17 | 39.07977 | 1.87453 | 8788 ft | 270 kts | 241° |
| 2026-05-04 10:17 | 39.07104 | 1.85318 | 8048 ft | 269 kts | 242° |
| 2026-05-04 10:19 | 39.01673 | 1.72287 | 5734 ft | 226 kts | 242° |
| 2026-05-04 10:19 | 39.00941 | 1.70502 | 5418 ft | 225 kts | 242° |
| 2026-05-04 10:19 | 39.00213 | 1.68725 | 5128 ft | 224 kts | 242° |
| 2026-05-04 10:19 | 38.99494 | 1.66973 | 4864 ft | 221 kts | 242° |
| 2026-05-04 10:20 | 38.98779 | 1.65229 | 4566 ft | 220 kts | 242° |
| 2026-05-04 10:20 | 38.98068 | 1.63491 | 4267 ft | 219 kts | 242° |
| 2026-05-04 10:20 | 38.97359 | 1.61759 | 3950 ft | 219 kts | 242° |
| 2026-05-04 10:20 | 38.96649 | 1.60031 | 3671 ft | 218 kts | 242° |
| 2026-05-04 10:21 | 38.95941 | 1.58312 | 3375 ft | 217 kts | 242° |
| 2026-05-04 10:21 | 38.95243 | 1.56615 | 3116 ft | 214 kts | 242° |
| 2026-05-04 10:21 | 38.94553 | 1.54933 | 2843 ft | 212 kts | 242° |
| 2026-05-04 10:21 | 38.93866 | 1.53269 | 2564 ft | 211 kts | 241° |
| 2026-05-04 10:22 | 38.92529 | 1.50007 | 2005 ft | 194 kts | 241° |
| 2026-05-04 10:22 | 38.91928 | 1.48543 | 1731 ft | 179 kts | 241° |
| 2026-05-04 10:22 | 38.91367 | 1.47186 | 1517 ft | 163 kts | 241° |
| 2026-05-04 10:23 | 38.90868 | 1.46008 | 1334 ft | 143 kts | 240° |
| 2026-05-04 10:23 | 38.90434 | 1.44903 | 1091 ft | 136 kts | 243° |
| 2026-05-04 10:25 | 38.87407 | 1.37611 | 9 ft | 100 kts | 243° |
| 2026-05-04 10:25 | 38.87166 | 1.37024 | 12 ft | 46 kts | 242° |
| 2026-05-04 10:25 | 38.87104 | 1.36782 | 9 ft | 23 kts | 270° |
| 2026-05-04 10:25 | 38.87103 | 1.36677 | 8 ft | 12 kts | 270° |
| 2026-05-04 10:26 | 38.87110 | 1.36577 | 8 ft | 10 kts | 297° |
| 2026-05-04 10:26 | 38.87164 | 1.36580 | 9 ft | 8 kts | 39° |
| 2026-05-04 10:26 | 38.87196 | 1.36637 | 9 ft | 7 kts | 62° |
| 2026-05-04 10:26 | 38.87235 | 1.36734 | 9 ft | 18 kts | 63° |
| 2026-05-04 10:27 | 38.87265 | 1.36815 | 9 ft | 6 kts | 65° |
| 2026-05-04 10:27 | 38.87285 | 1.36855 | 10 ft | 5 kts | 34° |
| 2026-05-04 10:27 | 38.87332 | 1.36848 | 9 ft | 9 kts | 335° |
| 2026-05-04 10:27 | 38.87385 | 1.36811 | 9 ft | 9 kts | 332° |
| 2026-05-04 10:28 | 38.87444 | 1.36816 | 10 ft | 10 kts | 51° |
| 2026-05-04 10:28 | 38.87479 | 1.36902 | 9 ft | 12 kts | 61° |
| 2026-05-04 10:28 | 38.87511 | 1.36951 | 9 ft | 6 kts | 5° |
| 2026-05-04 10:28 | 38.87544 | 1.36931 | 10 ft | 5 kts | 330° |
| 2026-05-04 10:29 | 38.87559 | 1.36921 | 8 ft | 0 kts | 332° |